sensor_id;sensor_type;location;lat;lon;timestamp;temperature;humidity
76203;DHT22;64985;46.364;17.008;2022-11-20T00:02:37;3.60;99.90
76203;DHT22;64985;46.364;17.008;2022-11-20T00:05:39;3.60;99.90
76203;DHT22;64985;46.364;17.008;2022-11-20T00:08:41;3.60;99.90
76203;DHT22;64985;46.364;17.008;2022-11-20T00:11:44;3.60;99.90
76203;DHT22;64985;46.364;17.008;2022-11-20T00:14:46;3.60;99.90
76203;DHT22;64985;46.364;17.008;2022-11-20T00:17:48;3.60;99.90
76203;DHT22;64985;46.364;17.008;2022-11-20T00:20:50;3.70;99.90
76203;DHT22;64985;46.364;17.008;2022-11-20T00:23:53;3.60;99.90
76203;DHT22;64985;46.364;17.008;2022-11-20T00:26:56;3.60;99.90
76203;DHT22;64985;46.364;17.008;2022-11-20T00:29:58;3.60;99.90
76203;DHT22;64985;46.364;17.008;2022-11-20T00:33:00;3.60;99.90
76203;DHT22;64985;46.364;17.008;2022-11-20T00:36:07;3.70;99.90
76203;DHT22;64985;46.364;17.008;2022-11-20T00:39:09;3.60;99.90
76203;DHT22;64985;46.364;17.008;2022-11-20T00:42:11;3.70;99.90
76203;DHT22;64985;46.364;17.008;2022-11-20T00:45:14;3.70;99.90
76203;DHT22;64985;46.364;17.008;2022-11-20T00:48:16;3.70;99.90
76203;DHT22;64985;46.364;17.008;2022-11-20T00:51:20;3.70;99.90
76203;DHT22;64985;46.364;17.008;2022-11-20T00:54:23;3.70;99.90
76203;DHT22;64985;46.364;17.008;2022-11-20T00:57:25;3.70;99.90
76203;DHT22;64985;46.364;17.008;2022-11-20T01:00:27;3.80;99.90
76203;DHT22;64985;46.364;17.008;2022-11-20T01:03:31;3.80;99.90
76203;DHT22;64985;46.364;17.008;2022-11-20T01:06:36;3.80;99.90
76203;DHT22;64985;46.364;17.008;2022-11-20T01:09:38;3.70;99.90
76203;DHT22;64985;46.364;17.008;2022-11-20T01:12:40;3.80;99.90
76203;DHT22;64985;46.364;17.008;2022-11-20T01:15:42;3.70;99.90
76203;DHT22;64985;46.364;17.008;2022-11-20T01:18:46;3.70;99.90
76203;DHT22;64985;46.364;17.008;2022-11-20T01:21:52;3.80;99.90
76203;DHT22;64985;46.364;17.008;2022-11-20T01:24:54;3.70;99.90
76203;DHT22;64985;46.364;17.008;2022-11-20T01:27:56;3.80;99.90
76203;DHT22;64985;46.364;17.008;2022-11-20T01:30:59;3.70;99.90
76203;DHT22;64985;46.364;17.008;2022-11-20T01:34:03;3.70;99.90
76203;DHT22;64985;46.364;17.008;2022-11-20T01:37:06;3.70;99.90
76203;DHT22;64985;46.364;17.008;2022-11-20T01:40:08;3.70;99.90
76203;DHT22;64985;46.364;17.008;2022-11-20T01:43:17;3.70;99.90
76203;DHT22;64985;46.364;17.008;2022-11-20T01:46:22;3.70;99.90
76203;DHT22;64985;46.364;17.008;2022-11-20T01:52:41;3.80;99.90
76203;DHT22;64985;46.364;17.008;2022-11-20T01:55:49;3.80;99.90
76203;DHT22;64985;46.364;17.008;2022-11-20T01:58:56;3.80;99.90
76203;DHT22;64985;46.364;17.008;2022-11-20T02:02:00;3.80;99.90
76203;DHT22;64985;46.364;17.008;2022-11-20T02:05:51;3.80;99.90
76203;DHT22;64985;46.364;17.008;2022-11-20T02:08:32;3.70;99.90
76203;DHT22;64985;46.364;17.008;2022-11-20T02:11:34;3.80;99.90
76203;DHT22;64985;46.364;17.008;2022-11-20T02:14:36;3.80;99.90
76203;DHT22;64985;46.364;17.008;2022-11-20T02:17:38;3.80;99.90
76203;DHT22;64985;46.364;17.008;2022-11-20T02:20:43;3.80;99.90
76203;DHT22;64985;46.364;17.008;2022-11-20T02:24:14;3.80;99.90
76203;DHT22;64985;46.364;17.008;2022-11-20T02:27:17;3.80;99.90
76203;DHT22;64985;46.364;17.008;2022-11-20T02:30:19;3.80;99.90
76203;DHT22;64985;46.364;17.008;2022-11-20T02:33:21;3.80;99.90
76203;DHT22;64985;46.364;17.008;2022-11-20T02:36:26;3.80;99.90
76203;DHT22;64985;46.364;17.008;2022-11-20T02:39:28;3.80;99.90
76203;DHT22;64985;46.364;17.008;2022-11-20T02:42:31;3.80;99.90
76203;DHT22;64985;46.364;17.008;2022-11-20T02:45:33;3.70;99.90
76203;DHT22;64985;46.364;17.008;2022-11-20T02:48:35;3.70;99.90
76203;DHT22;64985;46.364;17.008;2022-11-20T02:51:37;3.80;99.90
76203;DHT22;64985;46.364;17.008;2022-11-20T02:54:39;3.80;99.90
76203;DHT22;64985;46.364;17.008;2022-11-20T02:57:41;3.70;99.90
76203;DHT22;64985;46.364;17.008;2022-11-20T03:00:43;3.70;99.90
76203;DHT22;64985;46.364;17.008;2022-11-20T03:03:45;3.80;99.90
76203;DHT22;64985;46.364;17.008;2022-11-20T03:06:50;3.70;99.90
76203;DHT22;64985;46.364;17.008;2022-11-20T03:09:52;3.70;99.90
76203;DHT22;64985;46.364;17.008;2022-11-20T03:12:55;3.70;99.90
76203;DHT22;64985;46.364;17.008;2022-11-20T03:15:57;3.70;99.90
76203;DHT22;64985;46.364;17.008;2022-11-20T03:18:59;3.60;99.90
76203;DHT22;64985;46.364;17.008;2022-11-20T03:22:02;3.70;99.90
76203;DHT22;64985;46.364;17.008;2022-11-20T03:25:05;3.60;99.90
76203;DHT22;64985;46.364;17.008;2022-11-20T03:28:07;3.60;99.90
76203;DHT22;64985;46.364;17.008;2022-11-20T03:31:11;3.70;99.90
76203;DHT22;64985;46.364;17.008;2022-11-20T03:34:14;3.60;99.90
76203;DHT22;64985;46.364;17.008;2022-11-20T03:37:16;3.60;99.90
76203;DHT22;64985;46.364;17.008;2022-11-20T03:40:19;3.60;99.90
76203;DHT22;64985;46.364;17.008;2022-11-20T03:43:21;3.60;99.90
76203;DHT22;64985;46.364;17.008;2022-11-20T03:46:23;3.60;99.90
76203;DHT22;64985;46.364;17.008;2022-11-20T03:49:25;3.60;99.90
76203;DHT22;64985;46.364;17.008;2022-11-20T03:52:27;3.60;99.90
76203;DHT22;64985;46.364;17.008;2022-11-20T03:55:29;3.60;99.90
76203;DHT22;64985;46.364;17.008;2022-11-20T03:58:33;3.60;99.90
76203;DHT22;64985;46.364;17.008;2022-11-20T04:01:36;3.50;99.90
76203;DHT22;64985;46.364;17.008;2022-11-20T04:04:39;3.40;99.90
76203;DHT22;64985;46.364;17.008;2022-11-20T04:07:41;3.30;99.90
76203;DHT22;64985;46.364;17.008;2022-11-20T04:10:43;3.30;99.90
76203;DHT22;64985;46.364;17.008;2022-11-20T04:13:48;3.20;99.90
76203;DHT22;64985;46.364;17.008;2022-11-20T04:16:50;3.20;99.90
76203;DHT22;64985;46.364;17.008;2022-11-20T04:19:52;3.20;99.90
76203;DHT22;64985;46.364;17.008;2022-11-20T04:22:54;3.20;99.90
76203;DHT22;64985;46.364;17.008;2022-11-20T04:26:10;3.10;99.90
76203;DHT22;64985;46.364;17.008;2022-11-20T04:29:13;3.10;99.90
76203;DHT22;64985;46.364;17.008;2022-11-20T04:32:15;3.10;99.90
76203;DHT22;64985;46.364;17.008;2022-11-20T04:35:16;3.10;99.90
76203;DHT22;64985;46.364;17.008;2022-11-20T04:38:19;3.10;99.90
76203;DHT22;64985;46.364;17.008;2022-11-20T04:41:23;3.20;99.90
76203;DHT22;64985;46.364;17.008;2022-11-20T04:44:25;3.10;99.90
76203;DHT22;64985;46.364;17.008;2022-11-20T04:47:27;3.10;99.90
76203;DHT22;64985;46.364;17.008;2022-11-20T04:50:29;3.00;99.90
76203;DHT22;64985;46.364;17.008;2022-11-20T04:53:32;3.00;99.90
76203;DHT22;64985;46.364;17.008;2022-11-20T04:56:34;2.90;99.90
76203;DHT22;64985;46.364;17.008;2022-11-20T04:59:36;2.90;99.90
76203;DHT22;64985;46.364;17.008;2022-11-20T05:02:38;2.90;99.90
76203;DHT22;64985;46.364;17.008;2022-11-20T05:05:40;2.90;99.90
76203;DHT22;64985;46.364;17.008;2022-11-20T05:08:42;2.90;99.90
76203;DHT22;64985;46.364;17.008;2022-11-20T05:11:45;2.90;99.90
76203;DHT22;64985;46.364;17.008;2022-11-20T05:14:52;2.90;99.90
76203;DHT22;64985;46.364;17.008;2022-11-20T05:17:54;2.90;99.90
76203;DHT22;64985;46.364;17.008;2022-11-20T05:20:57;2.80;99.90
76203;DHT22;64985;46.364;17.008;2022-11-20T05:23:59;2.90;99.90
76203;DHT22;64985;46.364;17.008;2022-11-20T05:27:01;2.90;99.90
76203;DHT22;64985;46.364;17.008;2022-11-20T05:30:04;2.90;99.90
76203;DHT22;64985;46.364;17.008;2022-11-20T05:33:07;2.90;99.90
76203;DHT22;64985;46.364;17.008;2022-11-20T05:36:11;2.90;99.90
76203;DHT22;64985;46.364;17.008;2022-11-20T05:39:13;2.90;99.90
76203;DHT22;64985;46.364;17.008;2022-11-20T05:42:15;2.90;99.90
76203;DHT22;64985;46.364;17.008;2022-11-20T05:45:33;2.90;99.90
76203;DHT22;64985;46.364;17.008;2022-11-20T05:48:36;3.00;99.90
76203;DHT22;64985;46.364;17.008;2022-11-20T05:51:38;3.00;99.90
76203;DHT22;64985;46.364;17.008;2022-11-20T05:54:40;3.00;99.90
76203;DHT22;64985;46.364;17.008;2022-11-20T05:57:42;3.00;99.90
76203;DHT22;64985;46.364;17.008;2022-11-20T06:00:44;3.00;99.90
76203;DHT22;64985;46.364;17.008;2022-11-20T06:03:46;2.90;99.90
76203;DHT22;64985;46.364;17.008;2022-11-20T06:06:49;2.80;99.90
76203;DHT22;64985;46.364;17.008;2022-11-20T06:09:51;2.80;99.90
76203;DHT22;64985;46.364;17.008;2022-11-20T06:12:53;2.80;99.90
76203;DHT22;64985;46.364;17.008;2022-11-20T06:15:56;2.80;99.90
76203;DHT22;64985;46.364;17.008;2022-11-20T06:18:58;2.80;99.90
76203;DHT22;64985;46.364;17.008;2022-11-20T06:22:00;2.70;99.90
76203;DHT22;64985;46.364;17.008;2022-11-20T06:25:03;2.60;99.90
76203;DHT22;64985;46.364;17.008;2022-11-20T06:28:05;2.70;99.90
76203;DHT22;64985;46.364;17.008;2022-11-20T06:31:09;2.70;99.90
76203;DHT22;64985;46.364;17.008;2022-11-20T06:34:12;2.80;99.90
76203;DHT22;64985;46.364;17.008;2022-11-20T06:37:14;2.90;99.90
76203;DHT22;64985;46.364;17.008;2022-11-20T06:40:16;2.80;99.90
76203;DHT22;64985;46.364;17.008;2022-11-20T06:43:18;2.90;99.90
76203;DHT22;64985;46.364;17.008;2022-11-20T06:46:20;2.80;99.90
76203;DHT22;64985;46.364;17.008;2022-11-20T06:49:23;2.90;99.90
76203;DHT22;64985;46.364;17.008;2022-11-20T06:52:25;2.90;99.90
76203;DHT22;64985;46.364;17.008;2022-11-20T06:55:27;2.90;99.90
76203;DHT22;64985;46.364;17.008;2022-11-20T06:58:31;2.90;99.90
76203;DHT22;64985;46.364;17.008;2022-11-20T07:01:33;2.90;99.90
76203;DHT22;64985;46.364;17.008;2022-11-20T07:04:36;2.90;99.90
76203;DHT22;64985;46.364;17.008;2022-11-20T07:07:41;3.00;99.90
76203;DHT22;64985;46.364;17.008;2022-11-20T07:10:44;3.00;99.90
76203;DHT22;64985;46.364;17.008;2022-11-20T07:13:46;3.00;99.90
76203;DHT22;64985;46.364;17.008;2022-11-20T07:16:48;3.00;99.90
76203;DHT22;64985;46.364;17.008;2022-11-20T07:19:50;3.10;99.90
76203;DHT22;64985;46.364;17.008;2022-11-20T07:22:54;3.00;99.90
76203;DHT22;64985;46.364;17.008;2022-11-20T07:25:56;3.00;99.90
76203;DHT22;64985;46.364;17.008;2022-11-20T07:28:58;3.00;99.90
76203;DHT22;64985;46.364;17.008;2022-11-20T07:32:01;3.00;99.90
76203;DHT22;64985;46.364;17.008;2022-11-20T07:35:03;3.00;99.90
76203;DHT22;64985;46.364;17.008;2022-11-20T07:38:05;3.00;99.90
76203;DHT22;64985;46.364;17.008;2022-11-20T07:41:07;3.10;99.90
76203;DHT22;64985;46.364;17.008;2022-11-20T07:44:09;3.10;99.90
76203;DHT22;64985;46.364;17.008;2022-11-20T07:47:11;3.10;99.90
76203;DHT22;64985;46.364;17.008;2022-11-20T07:50:14;3.10;99.90
76203;DHT22;64985;46.364;17.008;2022-11-20T07:53:16;3.10;99.90
76203;DHT22;64985;46.364;17.008;2022-11-20T07:56:22;3.00;99.90
76203;DHT22;64985;46.364;17.008;2022-11-20T07:59:24;3.00;99.90
76203;DHT22;64985;46.364;17.008;2022-11-20T08:02:26;3.00;99.90
76203;DHT22;64985;46.364;17.008;2022-11-20T08:05:28;3.00;99.90
76203;DHT22;64985;46.364;17.008;2022-11-20T08:08:30;3.00;99.90
76203;DHT22;64985;46.364;17.008;2022-11-20T08:11:35;3.00;99.90
76203;DHT22;64985;46.364;17.008;2022-11-20T08:14:55;3.00;99.90
76203;DHT22;64985;46.364;17.008;2022-11-20T08:18:10;3.00;99.90
76203;DHT22;64985;46.364;17.008;2022-11-20T08:21:33;3.20;99.90
76203;DHT22;64985;46.364;17.008;2022-11-20T08:24:39;3.10;99.90
76203;DHT22;64985;46.364;17.008;2022-11-20T08:27:41;3.10;99.90
76203;DHT22;64985;46.364;17.008;2022-11-20T08:30:43;3.10;99.90
76203;DHT22;64985;46.364;17.008;2022-11-20T08:33:45;3.20;99.90
76203;DHT22;64985;46.364;17.008;2022-11-20T08:36:47;3.20;99.90
76203;DHT22;64985;46.364;17.008;2022-11-20T08:39:49;3.30;99.90
76203;DHT22;64985;46.364;17.008;2022-11-20T08:42:51;3.30;99.90
76203;DHT22;64985;46.364;17.008;2022-11-20T08:45:53;3.40;99.90
76203;DHT22;64985;46.364;17.008;2022-11-20T08:48:58;3.40;99.90
76203;DHT22;64985;46.364;17.008;2022-11-20T08:52:00;3.50;99.90
76203;DHT22;64985;46.364;17.008;2022-11-20T08:55:03;3.60;99.90
76203;DHT22;64985;46.364;17.008;2022-11-20T08:58:06;3.60;99.90
76203;DHT22;64985;46.364;17.008;2022-11-20T09:01:09;3.60;99.90
76203;DHT22;64985;46.364;17.008;2022-11-20T09:04:11;3.70;99.90
76203;DHT22;64985;46.364;17.008;2022-11-20T09:07:15;3.80;99.90
76203;DHT22;64985;46.364;17.008;2022-11-20T09:10:17;3.80;99.90
76203;DHT22;64985;46.364;17.008;2022-11-20T09:13:28;3.90;99.90
76203;DHT22;64985;46.364;17.008;2022-11-20T09:16:30;3.80;99.90
76203;DHT22;64985;46.364;17.008;2022-11-20T09:19:32;3.80;99.90
76203;DHT22;64985;46.364;17.008;2022-11-20T09:22:39;3.80;99.90
76203;DHT22;64985;46.364;17.008;2022-11-20T09:25:43;3.80;99.90
76203;DHT22;64985;46.364;17.008;2022-11-20T09:28:45;3.80;99.90
76203;DHT22;64985;46.364;17.008;2022-11-20T09:31:47;3.80;99.90
76203;DHT22;64985;46.364;17.008;2022-11-20T09:34:49;3.80;99.90
76203;DHT22;64985;46.364;17.008;2022-11-20T09:37:51;3.80;99.90
76203;DHT22;64985;46.364;17.008;2022-11-20T09:41:02;3.80;99.90
76203;DHT22;64985;46.364;17.008;2022-11-20T09:47:35;3.90;99.90
76203;DHT22;64985;46.364;17.008;2022-11-20T09:50:48;3.90;99.90
76203;DHT22;64985;46.364;17.008;2022-11-20T09:57:15;3.90;99.90
76203;DHT22;64985;46.364;17.008;2022-11-20T10:00:19;3.90;99.90
76203;DHT22;64985;46.364;17.008;2022-11-20T10:21:19;4.00;99.90
76203;DHT22;64985;46.364;17.008;2022-11-20T10:24:34;3.90;99.90
76203;DHT22;64985;46.364;17.008;2022-11-20T10:30:46;4.00;99.90
76203;DHT22;64985;46.364;17.008;2022-11-20T10:33:52;4.00;99.90
76203;DHT22;64985;46.364;17.008;2022-11-20T10:37:25;4.00;99.90
76203;DHT22;64985;46.364;17.008;2022-11-20T10:43:38;4.10;99.90
76203;DHT22;64985;46.364;17.008;2022-11-20T10:46:43;4.20;99.90
76203;DHT22;64985;46.364;17.008;2022-11-20T10:49:55;4.30;99.90
76203;DHT22;64985;46.364;17.008;2022-11-20T11:00:05;4.40;99.90
76203;DHT22;64985;46.364;17.008;2022-11-20T11:03:20;4.40;99.90
76203;DHT22;64985;46.364;17.008;2022-11-20T11:06:33;4.40;99.90
76203;DHT22;64985;46.364;17.008;2022-11-20T11:09:41;4.40;99.90
76203;DHT22;64985;46.364;17.008;2022-11-20T11:12:47;4.60;99.90
76203;DHT22;64985;46.364;17.008;2022-11-20T11:15:50;4.70;99.90
76203;DHT22;64985;46.364;17.008;2022-11-20T11:19:10;4.80;99.90
76203;DHT22;64985;46.364;17.008;2022-11-20T11:22:18;4.80;99.90
76203;DHT22;64985;46.364;17.008;2022-11-20T11:25:30;4.70;99.90
76203;DHT22;64985;46.364;17.008;2022-11-20T11:28:35;4.80;99.90
76203;DHT22;64985;46.364;17.008;2022-11-20T11:31:37;4.80;99.90
76203;DHT22;64985;46.364;17.008;2022-11-20T11:34:40;4.80;99.90
76203;DHT22;64985;46.364;17.008;2022-11-20T11:37:42;4.80;99.90
76203;DHT22;64985;46.364;17.008;2022-11-20T11:40:46;4.90;99.90
76203;DHT22;64985;46.364;17.008;2022-11-20T11:43:54;4.80;99.90
76203;DHT22;64985;46.364;17.008;2022-11-20T11:47:24;4.80;99.90
76203;DHT22;64985;46.364;17.008;2022-11-20T11:50:28;4.80;99.90
76203;DHT22;64985;46.364;17.008;2022-11-20T11:53:40;4.90;99.90
76203;DHT22;64985;46.364;17.008;2022-11-20T11:56:43;4.90;99.90
76203;DHT22;64985;46.364;17.008;2022-11-20T12:03:24;4.90;99.90
76203;DHT22;64985;46.364;17.008;2022-11-20T12:06:30;4.90;99.90
76203;DHT22;64985;46.364;17.008;2022-11-20T12:09:46;4.90;99.90
76203;DHT22;64985;46.364;17.008;2022-11-20T12:12:54;4.90;99.90
76203;DHT22;64985;46.364;17.008;2022-11-20T12:15:58;4.90;99.90
76203;DHT22;64985;46.364;17.008;2022-11-20T12:19:01;4.90;99.90
76203;DHT22;64985;46.364;17.008;2022-11-20T12:25:27;4.80;99.90
76203;DHT22;64985;46.364;17.008;2022-11-20T12:39:42;4.90;99.90
76203;DHT22;64985;46.364;17.008;2022-11-20T12:43:36;4.90;99.90
76203;DHT22;64985;46.364;17.008;2022-11-20T12:52:42;5.10;99.90
76203;DHT22;64985;46.364;17.008;2022-11-20T13:06:16;4.90;99.90
76203;DHT22;64985;46.364;17.008;2022-11-20T13:09:20;4.90;99.90
76203;DHT22;64985;46.364;17.008;2022-11-20T13:12:34;5.00;99.90
76203;DHT22;64985;46.364;17.008;2022-11-20T13:15:50;5.10;99.90
76203;DHT22;64985;46.364;17.008;2022-11-20T13:18:56;5.10;99.90
76203;DHT22;64985;46.364;17.008;2022-11-20T13:22:03;5.10;99.90
76203;DHT22;64985;46.364;17.008;2022-11-20T13:25:09;5.00;99.90
76203;DHT22;64985;46.364;17.008;2022-11-20T13:31:31;5.00;99.90
76203;DHT22;64985;46.364;17.008;2022-11-20T13:34:34;5.00;99.90
76203;DHT22;64985;46.364;17.008;2022-11-20T13:37:38;5.00;99.90
76203;DHT22;64985;46.364;17.008;2022-11-20T13:40:57;5.00;99.90
76203;DHT22;64985;46.364;17.008;2022-11-20T13:44:23;5.10;99.90
76203;DHT22;64985;46.364;17.008;2022-11-20T13:47:27;5.10;99.90
76203;DHT22;64985;46.364;17.008;2022-11-20T13:50:46;5.20;99.90
76203;DHT22;64985;46.364;17.008;2022-11-20T13:54:13;5.20;99.90
76203;DHT22;64985;46.364;17.008;2022-11-20T14:01:08;5.10;99.90
76203;DHT22;64985;46.364;17.008;2022-11-20T14:04:17;5.10;99.90
76203;DHT22;64985;46.364;17.008;2022-11-20T14:07:27;5.10;99.90
76203;DHT22;64985;46.364;17.008;2022-11-20T14:10:34;5.10;99.90
76203;DHT22;64985;46.364;17.008;2022-11-20T14:13:37;5.10;99.90
76203;DHT22;64985;46.364;17.008;2022-11-20T14:16:39;5.10;99.90
76203;DHT22;64985;46.364;17.008;2022-11-20T14:19:45;5.10;99.90
76203;DHT22;64985;46.364;17.008;2022-11-20T14:22:49;5.20;99.90
76203;DHT22;64985;46.364;17.008;2022-11-20T14:25:52;5.20;99.90
76203;DHT22;64985;46.364;17.008;2022-11-20T14:28:55;5.20;99.90
76203;DHT22;64985;46.364;17.008;2022-11-20T14:31:58;5.10;99.90
76203;DHT22;64985;46.364;17.008;2022-11-20T14:35:09;5.20;99.90
76203;DHT22;64985;46.364;17.008;2022-11-20T14:38:17;5.10;99.90
76203;DHT22;64985;46.364;17.008;2022-11-20T14:41:22;5.10;99.90
76203;DHT22;64985;46.364;17.008;2022-11-20T14:44:33;5.10;99.90
76203;DHT22;64985;46.364;17.008;2022-11-20T14:47:36;5.10;99.90
76203;DHT22;64985;46.364;17.008;2022-11-20T14:50:39;5.00;99.90
76203;DHT22;64985;46.364;17.008;2022-11-20T14:53:41;5.00;99.90
76203;DHT22;64985;46.364;17.008;2022-11-20T14:57:02;5.00;99.90
76203;DHT22;64985;46.364;17.008;2022-11-20T15:03:17;5.00;99.90
76203;DHT22;64985;46.364;17.008;2022-11-20T15:06:25;4.90;99.90
76203;DHT22;64985;46.364;17.008;2022-11-20T15:09:29;4.90;99.90
76203;DHT22;64985;46.364;17.008;2022-11-20T15:12:33;4.80;99.90
76203;DHT22;64985;46.364;17.008;2022-11-20T15:15:50;4.80;99.90
76203;DHT22;64985;46.364;17.008;2022-11-20T15:18:56;4.80;99.90
76203;DHT22;64985;46.364;17.008;2022-11-20T15:21:59;4.80;99.90
76203;DHT22;64985;46.364;17.008;2022-11-20T15:25:11;4.70;99.90
76203;DHT22;64985;46.364;17.008;2022-11-20T15:28:27;4.70;99.90
76203;DHT22;64985;46.364;17.008;2022-11-20T15:31:31;4.60;99.90
76203;DHT22;64985;46.364;17.008;2022-11-20T15:34:34;4.60;99.90
76203;DHT22;64985;46.364;17.008;2022-11-20T15:37:37;4.60;99.90
76203;DHT22;64985;46.364;17.008;2022-11-20T15:40:40;4.60;99.90
76203;DHT22;64985;46.364;17.008;2022-11-20T15:43:43;4.50;99.90
76203;DHT22;64985;46.364;17.008;2022-11-20T15:46:46;4.50;99.90
76203;DHT22;64985;46.364;17.008;2022-11-20T15:49:48;4.50;99.90
76203;DHT22;64985;46.364;17.008;2022-11-20T15:52:51;4.50;99.90
76203;DHT22;64985;46.364;17.008;2022-11-20T15:55:54;4.50;99.90
76203;DHT22;64985;46.364;17.008;2022-11-20T15:58:57;4.50;99.90
76203;DHT22;64985;46.364;17.008;2022-11-20T16:01:59;4.50;99.90
76203;DHT22;64985;46.364;17.008;2022-11-20T16:05:01;4.50;99.90
76203;DHT22;64985;46.364;17.008;2022-11-20T16:08:07;4.50;99.90
76203;DHT22;64985;46.364;17.008;2022-11-20T16:11:14;4.50;99.90
76203;DHT22;64985;46.364;17.008;2022-11-20T16:14:17;4.50;99.90
76203;DHT22;64985;46.364;17.008;2022-11-20T16:17:39;4.50;99.90
76203;DHT22;64985;46.364;17.008;2022-11-20T16:20:49;4.50;99.90
76203;DHT22;64985;46.364;17.008;2022-11-20T16:23:52;4.50;99.90
76203;DHT22;64985;46.364;17.008;2022-11-20T16:26:55;4.60;99.90
76203;DHT22;64985;46.364;17.008;2022-11-20T16:29:57;4.60;99.90
76203;DHT22;64985;46.364;17.008;2022-11-20T16:33:02;4.50;99.90
76203;DHT22;64985;46.364;17.008;2022-11-20T16:36:13;4.50;99.90
76203;DHT22;64985;46.364;17.008;2022-11-20T16:39:15;4.50;99.90
76203;DHT22;64985;46.364;17.008;2022-11-20T16:42:24;4.40;99.90
76203;DHT22;64985;46.364;17.008;2022-11-20T16:45:26;4.30;99.90
76203;DHT22;64985;46.364;17.008;2022-11-20T16:48:34;4.30;99.90
76203;DHT22;64985;46.364;17.008;2022-11-20T16:51:37;4.30;99.90
76203;DHT22;64985;46.364;17.008;2022-11-20T16:54:40;4.20;99.90
76203;DHT22;64985;46.364;17.008;2022-11-20T16:57:42;4.20;99.90
76203;DHT22;64985;46.364;17.008;2022-11-20T17:00:46;4.20;99.90
76203;DHT22;64985;46.364;17.008;2022-11-20T17:04:02;4.20;99.90
76203;DHT22;64985;46.364;17.008;2022-11-20T17:07:04;4.20;99.90
76203;DHT22;64985;46.364;17.008;2022-11-20T17:10:09;4.20;99.90
76203;DHT22;64985;46.364;17.008;2022-11-20T17:13:12;4.10;99.90
76203;DHT22;64985;46.364;17.008;2022-11-20T17:16:20;4.10;99.90
76203;DHT22;64985;46.364;17.008;2022-11-20T17:19:23;4.10;99.90
76203;DHT22;64985;46.364;17.008;2022-11-20T17:22:25;4.00;99.90
76203;DHT22;64985;46.364;17.008;2022-11-20T17:25:31;4.00;99.90
76203;DHT22;64985;46.364;17.008;2022-11-20T17:28:37;4.10;99.90
76203;DHT22;64985;46.364;17.008;2022-11-20T17:31:41;4.00;99.90
76203;DHT22;64985;46.364;17.008;2022-11-20T17:34:44;4.00;99.90
76203;DHT22;64985;46.364;17.008;2022-11-20T17:37:46;3.90;99.90
76203;DHT22;64985;46.364;17.008;2022-11-20T17:40:49;3.90;99.90
76203;DHT22;64985;46.364;17.008;2022-11-20T17:43:54;3.80;99.90
76203;DHT22;64985;46.364;17.008;2022-11-20T17:46:56;3.90;99.90
76203;DHT22;64985;46.364;17.008;2022-11-20T17:50:00;3.80;99.90
76203;DHT22;64985;46.364;17.008;2022-11-20T17:53:03;3.80;99.90
76203;DHT22;64985;46.364;17.008;2022-11-20T17:56:07;3.80;99.90
76203;DHT22;64985;46.364;17.008;2022-11-20T17:59:28;3.90;99.90
76203;DHT22;64985;46.364;17.008;2022-11-20T18:02:30;3.90;99.90
76203;DHT22;64985;46.364;17.008;2022-11-20T18:05:33;4.00;99.90
76203;DHT22;64985;46.364;17.008;2022-11-20T18:08:35;4.00;99.90
76203;DHT22;64985;46.364;17.008;2022-11-20T18:11:39;4.00;99.90
76203;DHT22;64985;46.364;17.008;2022-11-20T18:14:42;4.00;99.90
76203;DHT22;64985;46.364;17.008;2022-11-20T18:17:44;4.00;99.90
76203;DHT22;64985;46.364;17.008;2022-11-20T18:20:52;4.00;99.90
76203;DHT22;64985;46.364;17.008;2022-11-20T18:23:55;3.90;99.90
76203;DHT22;64985;46.364;17.008;2022-11-20T18:26:58;3.90;99.90
76203;DHT22;64985;46.364;17.008;2022-11-20T18:30:01;3.90;99.90
76203;DHT22;64985;46.364;17.008;2022-11-20T18:33:04;3.90;99.90
76203;DHT22;64985;46.364;17.008;2022-11-20T18:36:09;3.90;99.90
76203;DHT22;64985;46.364;17.008;2022-11-20T18:39:13;3.90;99.90
76203;DHT22;64985;46.364;17.008;2022-11-20T18:42:16;3.80;99.90
76203;DHT22;64985;46.364;17.008;2022-11-20T18:45:40;3.90;99.90
76203;DHT22;64985;46.364;17.008;2022-11-20T18:48:42;3.90;99.90
76203;DHT22;64985;46.364;17.008;2022-11-20T18:51:45;4.00;99.90
76203;DHT22;64985;46.364;17.008;2022-11-20T18:54:50;4.00;99.90
76203;DHT22;64985;46.364;17.008;2022-11-20T18:57:54;3.90;99.90
76203;DHT22;64985;46.364;17.008;2022-11-20T19:01:04;4.00;99.90
76203;DHT22;64985;46.364;17.008;2022-11-20T19:04:12;3.90;99.90
76203;DHT22;64985;46.364;17.008;2022-11-20T19:07:16;3.80;99.90
76203;DHT22;64985;46.364;17.008;2022-11-20T19:10:18;3.80;99.90
76203;DHT22;64985;46.364;17.008;2022-11-20T19:13:21;3.80;99.90
76203;DHT22;64985;46.364;17.008;2022-11-20T19:16:24;3.80;99.90
76203;DHT22;64985;46.364;17.008;2022-11-20T19:19:28;3.80;99.90
76203;DHT22;64985;46.364;17.008;2022-11-20T19:22:30;3.80;99.90
76203;DHT22;64985;46.364;17.008;2022-11-20T19:25:33;3.80;99.90
76203;DHT22;64985;46.364;17.008;2022-11-20T19:28:39;3.80;99.90
76203;DHT22;64985;46.364;17.008;2022-11-20T19:31:42;3.80;99.90
76203;DHT22;64985;46.364;17.008;2022-11-20T19:34:45;3.70;99.90
76203;DHT22;64985;46.364;17.008;2022-11-20T19:37:47;3.70;99.90
76203;DHT22;64985;46.364;17.008;2022-11-20T19:40:51;3.70;99.90
76203;DHT22;64985;46.364;17.008;2022-11-20T19:43:57;3.70;99.90
76203;DHT22;64985;46.364;17.008;2022-11-20T19:47:06;3.70;99.90
76203;DHT22;64985;46.364;17.008;2022-11-20T19:50:15;3.70;99.90
76203;DHT22;64985;46.364;17.008;2022-11-20T19:53:19;3.70;99.90
76203;DHT22;64985;46.364;17.008;2022-11-20T19:56:23;3.70;99.90
76203;DHT22;64985;46.364;17.008;2022-11-20T19:59:26;3.70;99.90
76203;DHT22;64985;46.364;17.008;2022-11-20T20:02:29;3.70;99.90
76203;DHT22;64985;46.364;17.008;2022-11-20T20:05:33;3.70;99.90
76203;DHT22;64985;46.364;17.008;2022-11-20T20:08:37;3.70;99.90
76203;DHT22;64985;46.364;17.008;2022-11-20T20:11:44;3.70;99.90
76203;DHT22;64985;46.364;17.008;2022-11-20T20:14:47;3.70;99.90
76203;DHT22;64985;46.364;17.008;2022-11-20T20:17:52;3.70;99.90
76203;DHT22;64985;46.364;17.008;2022-11-20T20:20:55;3.70;99.90
76203;DHT22;64985;46.364;17.008;2022-11-20T20:24:04;3.70;99.90
76203;DHT22;64985;46.364;17.008;2022-11-20T20:27:07;3.70;99.90
76203;DHT22;64985;46.364;17.008;2022-11-20T20:30:11;3.70;99.90
76203;DHT22;64985;46.364;17.008;2022-11-20T20:33:14;3.70;99.90
76203;DHT22;64985;46.364;17.008;2022-11-20T20:36:18;3.80;99.90
76203;DHT22;64985;46.364;17.008;2022-11-20T20:39:21;3.80;99.90
76203;DHT22;64985;46.364;17.008;2022-11-20T20:42:25;3.80;99.90
76203;DHT22;64985;46.364;17.008;2022-11-20T20:45:28;3.80;99.90
76203;DHT22;64985;46.364;17.008;2022-11-20T20:48:32;3.80;99.90
76203;DHT22;64985;46.364;17.008;2022-11-20T20:51:34;3.80;99.90
76203;DHT22;64985;46.364;17.008;2022-11-20T20:54:39;3.90;99.90